• Join FlightAware (Why Join?)
  • Login
  • US Flag 
12:33PM EDT


 

Airport Tracker/Info


-or-


 

Live Flight TrackerFlight Track Log ✈ AWE3374 ✈ 18-Apr-2013 ✈ KDCA - KMHT

Flight Track Log - Related Links

Times and Time Zones

All times are in EDT time to prevent confusion due to time zone crossing. See the AWE3374 flight status page for this flight to view local times or setup timezone preferences in your user account.

Time Position Orientation Groundspeed Altitude Reporting Facility
EDT Latitude Longitude Course Direction KTS MPH feet Rate Location/Type
03:06PM 38.8000 -77.0333 165° South 155 178 2,000  Level Potomac TRACON
03:07PM 38.7500 -77.0167 165° South 223 257 4,400 2,460 Climbing Potomac TRACON
03:10PM 38.8586 -76.8686 47° Northeast 251 289 10,300 2,460 Climbing Washington Center
03:11PM 38.9036 -76.7653 61° Northeast 296 341 12,700 2,460 Climbing Washington Center
03:12PM 38.9525 -76.6539 61° Northeast 332 382 15,300 2,460 Climbing Washington Center
03:13PM 38.9889 -76.5317 69° East 351 404 17,700 2,280 Climbing Washington Center
03:13PM 39.0272 -76.4119 68° East 359 413 19,900 2,100 Climbing Washington Center
03:15PM 39.0656 -76.2842 69° East 376 433 21,900 1,500 Climbing Washington Center
03:16PM 39.1058 -76.1614 67° East 395 455 23,000 540 Climbing Washington Center
03:17PM 39.1481 -76.0306 67° East 395 455 23,000 600 Level Washington Center
03:18PM 39.1881 -75.8994 68° East 395 455 24,200 1,320 Climbing Washington Center
03:19PM 39.2633 -75.7900 48° Northeast 395 455 25,700 1,560 Climbing Washington Center
03:20PM 39.3467 -75.6800 46° Northeast 401 461 27,400 1,680 Climbing Washington Center
03:21PM 39.4303 -75.5728 45° Northeast 413 475 29,100 1,800 Climbing Washington Center
03:22PM 39.4990 -75.4746 43° Northeast  Level FlightAware Approximate
03:22PM 39.5969 -75.3592 43° Northeast 404 465 32,900  Level New York Center
03:24PM 39.6717 -75.2614 45° Northeast 393 452 34,300 1,020 Climbing New York Center
03:24PM 39.7419 -75.1608 48° Northeast 381 438 35,000 300 Climbing New York Center
03:25PM 39.8172 -75.0439 50° Northeast 405 466 35,000  Level New York Center
03:26PM 39.8897 -74.9428 47° Northeast 415 478 35,000  Level New York Center
03:27PM 39.9794 -74.8181 47° Northeast 423 487 35,000  Level New York Center
03:29PM 40.0519 -74.7136 48° Northeast 428 493 35,000  Level New York Center
03:29PM 40.1708 -74.6417 25° Northeast 416 479 35,000  Level New York Center
03:30PM 40.2764 -74.6069 14° North 425 489 35,000  Level New York Center
03:31PM 40.3900 -74.5694 14° North 425 489 35,000  Level New York Center
03:33PM 40.5081 -74.5325 13° North 425 489 35,000  Level New York Center
03:34PM 40.7128 -74.4689 13° North 430 495 35,000  Level Boston Center
03:35PM 40.8303 -74.4314 14° North 430 495 35,000  Level Boston Center
03:36PM 40.9456 -74.3939 14° North 430 495 35,000  Level Boston Center
03:37PM 41.0689 -74.3617 11° North 435 501 35,000  Level Boston Center
03:38PM 41.1864 -74.3239 14° North 435 501 35,000  Level Boston Center
03:39PM 41.2911 -74.2883 14° North 429 494 35,000  Level Boston Center
03:40PM 41.4211 -74.2450 14° North 429 494 35,000  Level Boston Center
03:41PM 41.5467 -74.2042 14° North 434 499 35,000  Level Boston Center
03:42PM 41.6639 -74.1686 13° North 441 507 35,000 -480 Level Boston Center
03:43PM 41.7775 -74.0964 25° Northeast 446 513 34,100 -960 Descending Boston Center
03:44PM 41.8706 -74.0125 34° Northeast 436 502 33,200 -1,260 Descending Boston Center
03:45PM 41.9781 -73.9175 33° Northeast 449 517 31,700 -1,620 Descending Boston Center
03:46PM 42.0814 -73.8247 34° Northeast 454 522 30,000 -1,680 Descending Boston Center
03:47PM 42.1889 -73.7261 34° Northeast 454 522 28,300 -1,620 Descending Boston Center
03:48PM 42.3089 -73.6164 34° Northeast 469 540 26,900 -960 Descending Boston Center
03:49PM 42.3828 -73.5167 45° Northeast 444 511 26,400 -900 Descending Boston Center
03:50PM 42.4406 -73.3403 66° East 476 548 25,100 -1,440 Descending Boston Center
03:51PM 42.4917 -73.1947 64° Northeast 455 524 23,600 -1,500 Descending Boston Center
03:52PM 42.5406 -73.0517 65° Northeast 428 493 22,100 -1,380 Descending Boston Center
03:53PM 42.5847 -72.9222 65° Northeast 398 458 21,000 -1,140 Descending Boston Center
03:54PM 42.6269 -72.7928 66° East 384 442 19,900 -1,020 Descending Boston Center
03:56PM 42.7131 -72.5389 65° Northeast 367 422 18,000 -1,260 Descending Boston Center
03:57PM 42.7567 -72.4119 65° Northeast 362 417 16,200 -1,800 Descending Boston Center
03:58PM 42.7942 -72.2900 67° East 357 411 14,400 -1,740 Descending Boston Center
03:59PM 42.8106 -72.1769 79° East 344 396 12,800 -1,800 Descending Boston Center
04:00PM 42.8686 -72.0661 54° Northeast 326 375 10,900 -1,920 Descending Boston Center
04:01PM 42.9122 -71.9722 58° Northeast 326 375 9,000 -2,100 Descending Boston Center
04:02PM 42.9533 -71.8528 65° Northeast 314 361 6,700 -1,920 Descending Boston Center
04:03PM 42.9842 -71.7703 63° Northeast 302 348 5,200 -1,680 Descending Boston Center
04:04PM 43.0208 -71.6592 66° East 281 323 3,400 -1,260 Descending Boston Center
04:05PM 43.0392 -71.5822 72° East 255 293 2,700 -720 Descending Boston Center
04:06PM 43.0258 -71.5028 103° East 198 228 2,000 -660 Descending Boston Center
04:07PM 42.9986 -71.4750 143° Southeast 152 175 1,500 -660 Descending Boston Center
04:08PM 42.9631 -71.4528 155° Southeast 134 154 800 -720 Descending Boston Center